FD39 weather

Flying Cow Air Ranch Airport
Okeechobee, Florida, United States

Public forecast

Using degrees Fahrenheit for public forecast. Weather courtesy of forecast.io.

Closest aviation weather report (METAR) to Flying Cow Air Ranch Airport

Closest report is Okeechobee County Airport, 10.6 nm (19.7 km) NW. Retrieved 2019/10/19 17:35 UTC (0 seconds ago):

KOBE 191735Z AUTO 00000KT 2 1/2SM RA SCT021 BKN050 OVC090 23/21 A2984 RMK AO2 P0002

Closest aviation forecast (TAF) to Flying Cow Air Ranch Airport

Closest forecast is Witham Field, 25.2 nm (46.6 km) E. Retrieved 2019/10/19 12:22 UTC (5 hours ago):

TAF KSUA 191120Z 1912/2012 16010KT P6SM VCSH SCT025 BKN080 FM191500 18010KT P6SM -SHRA SCT025 BKN040 OVC150 FM191700 19011KT P6SM VCSH SCT030 BKN080 FM200000 21009KT P6SM SCT040 BKN100 FM200300 22007KT P6SM SCT035 BKN200